sensor_id;sensor_type;location;lat;lon;timestamp;P1;durP1;ratioP1;P2;durP2;ratioP2
49314;SDS011;36672;50.710;12.498;2022-12-31T00:02:14;0.43;;;0.30;;
49314;SDS011;36672;50.710;12.498;2022-12-31T00:04:39;0.40;;;0.30;;
49314;SDS011;36672;50.710;12.498;2022-12-31T00:07:04;0.40;;;0.40;;
49314;SDS011;36672;50.710;12.498;2022-12-31T00:09:29;0.73;;;0.50;;
49314;SDS011;36672;50.710;12.498;2022-12-31T00:11:55;0.40;;;0.30;;
49314;SDS011;36672;50.710;12.498;2022-12-31T00:14:20;0.35;;;0.35;;
49314;SDS011;36672;50.710;12.498;2022-12-31T00:16:45;0.60;;;0.40;;
49314;SDS011;36672;50.710;12.498;2022-12-31T00:19:11;0.57;;;0.55;;
49314;SDS011;36672;50.710;12.498;2022-12-31T00:21:36;0.40;;;0.40;;
49314;SDS011;36672;50.710;12.498;2022-12-31T00:24:03;0.38;;;0.38;;
49314;SDS011;36672;50.710;12.498;2022-12-31T00:26:30;0.38;;;0.38;;
49314;SDS011;36672;50.710;12.498;2022-12-31T00:28:57;0.30;;;0.30;;
49314;SDS011;36672;50.710;12.498;2022-12-31T00:31:25;0.38;;;0.30;;
49314;SDS011;36672;50.710;12.498;2022-12-31T00:33:52;0.38;;;0.38;;
49314;SDS011;36672;50.710;12.498;2022-12-31T00:36:19;0.40;;;0.38;;
49314;SDS011;36672;50.710;12.498;2022-12-31T00:38:50;1.05;;;0.30;;
49314;SDS011;36672;50.710;12.498;2022-12-31T00:41:16;0.22;;;0.22;;
49314;SDS011;36672;50.710;12.498;2022-12-31T00:43:43;0.65;;;0.30;;
49314;SDS011;36672;50.710;12.498;2022-12-31T00:46:08;0.30;;;0.30;;
49314;SDS011;36672;50.710;12.498;2022-12-31T00:48:35;1.27;;;0.40;;
49314;SDS011;36672;50.710;12.498;2022-12-31T00:51:02;0.52;;;0.40;;
49314;SDS011;36672;50.710;12.498;2022-12-31T00:53:29;0.65;;;0.40;;
49314;SDS011;36672;50.710;12.498;2022-12-31T00:55:59;0.35;;;0.30;;
49314;SDS011;36672;50.710;12.498;2022-12-31T00:58:32;0.20;;;0.20;;
49314;SDS011;36672;50.710;12.498;2022-12-31T01:00:57;0.40;;;0.30;;
49314;SDS011;36672;50.710;12.498;2022-12-31T01:03:36;0.30;;;0.30;;
49314;SDS011;36672;50.710;12.498;2022-12-31T01:06:01;0.40;;;0.30;;
49314;SDS011;36672;50.710;12.498;2022-12-31T01:08:27;0.30;;;0.30;;
49314;SDS011;36672;50.710;12.498;2022-12-31T01:10:52;0.43;;;0.20;;
49314;SDS011;36672;50.710;12.498;2022-12-31T01:13:36;0.73;;;0.20;;
49314;SDS011;36672;50.710;12.498;2022-12-31T01:16:06;0.20;;;0.20;;
49314;SDS011;36672;50.710;12.498;2022-12-31T01:18:35;0.60;;;0.30;;
49314;SDS011;36672;50.710;12.498;2022-12-31T01:21:01;0.20;;;0.20;;
49314;SDS011;36672;50.710;12.498;2022-12-31T01:23:28;0.43;;;0.30;;
49314;SDS011;36672;50.710;12.498;2022-12-31T01:25:54;0.25;;;0.25;;
49314;SDS011;36672;50.710;12.498;2022-12-31T01:28:20;0.20;;;0.20;;
49314;SDS011;36672;50.710;12.498;2022-12-31T01:30:46;0.20;;;0.20;;
49314;SDS011;36672;50.710;12.498;2022-12-31T01:33:11;0.20;;;0.20;;
49314;SDS011;36672;50.710;12.498;2022-12-31T01:35:36;0.30;;;0.30;;
49314;SDS011;36672;50.710;12.498;2022-12-31T01:38:01;0.85;;;0.35;;
49314;SDS011;36672;50.710;12.498;2022-12-31T01:40:27;0.35;;;0.30;;
49314;SDS011;36672;50.710;12.498;2022-12-31T01:42:55;0.20;;;0.20;;
49314;SDS011;36672;50.710;12.498;2022-12-31T01:45:21;0.30;;;0.20;;
49314;SDS011;36672;50.710;12.498;2022-12-31T01:47:49;0.30;;;0.30;;
49314;SDS011;36672;50.710;12.498;2022-12-31T01:50:25;0.20;;;0.20;;
49314;SDS011;36672;50.710;12.498;2022-12-31T01:52:56;0.32;;;0.15;;
49314;SDS011;36672;50.710;12.498;2022-12-31T01:55:27;0.25;;;0.25;;
49314;SDS011;36672;50.710;12.498;2022-12-31T01:58:03;0.20;;;0.20;;
49314;SDS011;36672;50.710;12.498;2022-12-31T02:00:35;0.68;;;0.40;;
49314;SDS011;36672;50.710;12.498;2022-12-31T02:03:00;0.68;;;0.20;;
49314;SDS011;36672;50.710;12.498;2022-12-31T02:05:35;0.20;;;0.20;;
49314;SDS011;36672;50.710;12.498;2022-12-31T02:08:10;0.33;;;0.30;;
49314;SDS011;36672;50.710;12.498;2022-12-31T02:10:36;0.28;;;0.28;;
49314;SDS011;36672;50.710;12.498;2022-12-31T02:13:02;0.15;;;0.15;;
49314;SDS011;36672;50.710;12.498;2022-12-31T02:15:51;0.20;;;0.20;;
49314;SDS011;36672;50.710;12.498;2022-12-31T02:18:29;0.20;;;0.20;;
49314;SDS011;36672;50.710;12.498;2022-12-31T02:21:18;0.35;;;0.32;;
49314;SDS011;36672;50.710;12.498;2022-12-31T02:26:57;0.22;;;0.22;;
49314;SDS011;36672;50.710;12.498;2022-12-31T02:38:18;0.10;;;0.10;;
49314;SDS011;36672;50.710;12.498;2022-12-31T02:40:48;0.20;;;0.20;;
49314;SDS011;36672;50.710;12.498;2022-12-31T02:43:15;1.38;;;0.30;;
49314;SDS011;36672;50.710;12.498;2022-12-31T02:45:44;0.10;;;0.10;;
49314;SDS011;36672;50.710;12.498;2022-12-31T02:51:08;0.28;;;0.28;;
49314;SDS011;36672;50.710;12.498;2022-12-31T02:53:51;0.25;;;0.20;;
49314;SDS011;36672;50.710;12.498;2022-12-31T02:56:37;0.52;;;0.20;;
49314;SDS011;36672;50.710;12.498;2022-12-31T02:59:19;0.10;;;0.10;;
49314;SDS011;36672;50.710;12.498;2022-12-31T03:02:12;0.30;;;0.20;;
49314;SDS011;36672;50.710;12.498;2022-12-31T03:04:50;0.20;;;0.20;;
49314;SDS011;36672;50.710;12.498;2022-12-31T03:09:47;0.57;;;0.20;;
49314;SDS011;36672;50.710;12.498;2022-12-31T03:12:13;0.10;;;0.10;;
49314;SDS011;36672;50.710;12.498;2022-12-31T03:14:57;0.10;;;0.10;;
49314;SDS011;36672;50.710;12.498;2022-12-31T03:17:23;0.20;;;0.20;;
49314;SDS011;36672;50.710;12.498;2022-12-31T03:19:49;0.10;;;0.10;;
49314;SDS011;36672;50.710;12.498;2022-12-31T03:22:34;0.52;;;0.30;;
49314;SDS011;36672;50.710;12.498;2022-12-31T03:25:23;0.32;;;0.10;;
49314;SDS011;36672;50.710;12.498;2022-12-31T03:28:11;0.20;;;0.20;;
49314;SDS011;36672;50.710;12.498;2022-12-31T03:30:43;0.30;;;0.20;;
49314;SDS011;36672;50.710;12.498;2022-12-31T03:33:10;0.10;;;0.10;;
49314;SDS011;36672;50.710;12.498;2022-12-31T03:35:37;0.20;;;0.10;;
49314;SDS011;36672;50.710;12.498;2022-12-31T03:38:04;0.10;;;0.10;;
49314;SDS011;36672;50.710;12.498;2022-12-31T03:40:30;0.15;;;0.10;;
49314;SDS011;36672;50.710;12.498;2022-12-31T03:42:58;0.28;;;0.20;;
49314;SDS011;36672;50.710;12.498;2022-12-31T03:45:23;0.28;;;0.20;;
49314;SDS011;36672;50.710;12.498;2022-12-31T03:47:49;0.88;;;0.28;;
49314;SDS011;36672;50.710;12.498;2022-12-31T03:50:15;1.55;;;0.20;;
49314;SDS011;36672;50.710;12.498;2022-12-31T03:52:41;0.63;;;0.20;;
49314;SDS011;36672;50.710;12.498;2022-12-31T03:55:07;0.55;;;0.20;;
49314;SDS011;36672;50.710;12.498;2022-12-31T03:57:34;0.20;;;0.20;;
49314;SDS011;36672;50.710;12.498;2022-12-31T03:59:59;0.10;;;0.10;;
49314;SDS011;36672;50.710;12.498;2022-12-31T04:02:24;0.15;;;0.15;;
49314;SDS011;36672;50.710;12.498;2022-12-31T04:04:50;0.90;;;0.30;;
49314;SDS011;36672;50.710;12.498;2022-12-31T04:07:15;0.20;;;0.20;;
49314;SDS011;36672;50.710;12.498;2022-12-31T04:09:41;0.88;;;0.30;;
49314;SDS011;36672;50.710;12.498;2022-12-31T04:12:06;0.98;;;0.20;;
49314;SDS011;36672;50.710;12.498;2022-12-31T04:14:31;2.55;;;0.10;;
49314;SDS011;36672;50.710;12.498;2022-12-31T04:16:57;0.30;;;0.20;;
49314;SDS011;36672;50.710;12.498;2022-12-31T04:19:22;0.10;;;0.10;;
49314;SDS011;36672;50.710;12.498;2022-12-31T04:21:47;1.38;;;0.13;;
49314;SDS011;36672;50.710;12.498;2022-12-31T04:24:13;0.20;;;0.20;;
49314;SDS011;36672;50.710;12.498;2022-12-31T04:26:38;0.32;;;0.25;;
49314;SDS011;36672;50.710;12.498;2022-12-31T04:29:04;0.25;;;0.20;;
49314;SDS011;36672;50.710;12.498;2022-12-31T04:31:31;0.10;;;0.10;;
49314;SDS011;36672;50.710;12.498;2022-12-31T04:33:56;0.75;;;0.10;;
49314;SDS011;36672;50.710;12.498;2022-12-31T04:36:21;0.55;;;0.20;;
49314;SDS011;36672;50.710;12.498;2022-12-31T04:38:47;0.75;;;0.28;;
49314;SDS011;36672;50.710;12.498;2022-12-31T04:41:12;0.10;;;0.10;;
49314;SDS011;36672;50.710;12.498;2022-12-31T04:43:41;0.40;;;0.10;;
49314;SDS011;36672;50.710;12.498;2022-12-31T04:46:08;0.75;;;0.15;;
49314;SDS011;36672;50.710;12.498;2022-12-31T04:48:34;0.45;;;0.20;;
49314;SDS011;36672;50.710;12.498;2022-12-31T04:51:00;0.20;;;0.20;;
49314;SDS011;36672;50.710;12.498;2022-12-31T04:53:25;0.10;;;0.10;;
49314;SDS011;36672;50.710;12.498;2022-12-31T04:55:51;0.10;;;0.10;;
49314;SDS011;36672;50.710;12.498;2022-12-31T04:58:17;0.40;;;0.20;;
49314;SDS011;36672;50.710;12.498;2022-12-31T05:00:42;0.70;;;0.30;;
49314;SDS011;36672;50.710;12.498;2022-12-31T05:03:10;0.32;;;0.20;;
49314;SDS011;36672;50.710;12.498;2022-12-31T05:05:40;0.10;;;0.10;;
49314;SDS011;36672;50.710;12.498;2022-12-31T05:08:08;0.10;;;0.10;;
49314;SDS011;36672;50.710;12.498;2022-12-31T05:10:34;0.85;;;0.20;;
49314;SDS011;36672;50.710;12.498;2022-12-31T05:12:59;0.20;;;0.20;;
49314;SDS011;36672;50.710;12.498;2022-12-31T05:15:25;0.30;;;0.20;;
49314;SDS011;36672;50.710;12.498;2022-12-31T05:17:50;0.20;;;0.20;;
49314;SDS011;36672;50.710;12.498;2022-12-31T05:20:16;0.20;;;0.10;;
49314;SDS011;36672;50.710;12.498;2022-12-31T05:22:41;0.20;;;0.13;;
49314;SDS011;36672;50.710;12.498;2022-12-31T05:25:07;0.70;;;0.13;;
49314;SDS011;36672;50.710;12.498;2022-12-31T05:27:33;0.30;;;0.20;;
49314;SDS011;36672;50.710;12.498;2022-12-31T05:29:58;0.40;;;0.20;;
49314;SDS011;36672;50.710;12.498;2022-12-31T05:32:24;0.85;;;0.20;;
49314;SDS011;36672;50.710;12.498;2022-12-31T05:34:49;0.30;;;0.20;;
49314;SDS011;36672;50.710;12.498;2022-12-31T05:37:14;1.38;;;0.43;;
49314;SDS011;36672;50.710;12.498;2022-12-31T05:39:40;1.05;;;0.40;;
49314;SDS011;36672;50.710;12.498;2022-12-31T05:42:05;0.35;;;0.22;;
49314;SDS011;36672;50.710;12.498;2022-12-31T05:44:30;0.90;;;0.47;;
49314;SDS011;36672;50.710;12.498;2022-12-31T05:46:56;1.20;;;0.30;;
49314;SDS011;36672;50.710;12.498;2022-12-31T05:49:21;0.73;;;0.40;;
49314;SDS011;36672;50.710;12.498;2022-12-31T05:51:46;0.30;;;0.30;;
49314;SDS011;36672;50.710;12.498;2022-12-31T05:54:12;0.75;;;0.50;;
49314;SDS011;36672;50.710;12.498;2022-12-31T05:56:37;3.53;;;0.30;;
49314;SDS011;36672;50.710;12.498;2022-12-31T05:59:02;1.77;;;0.40;;
49314;SDS011;36672;50.710;12.498;2022-12-31T06:01:28;0.55;;;0.30;;
49314;SDS011;36672;50.710;12.498;2022-12-31T06:03:53;0.93;;;0.20;;
49314;SDS011;36672;50.710;12.498;2022-12-31T06:06:18;0.60;;;0.40;;
49314;SDS011;36672;50.710;12.498;2022-12-31T06:08:47;0.40;;;0.30;;
49314;SDS011;36672;50.710;12.498;2022-12-31T06:11:14;0.73;;;0.30;;
49314;SDS011;36672;50.710;12.498;2022-12-31T06:13:40;0.30;;;0.30;;
49314;SDS011;36672;50.710;12.498;2022-12-31T06:16:08;1.45;;;0.22;;
49314;SDS011;36672;50.710;12.498;2022-12-31T06:18:34;0.45;;;0.30;;
49314;SDS011;36672;50.710;12.498;2022-12-31T06:21:00;0.50;;;0.40;;
49314;SDS011;36672;50.710;12.498;2022-12-31T06:23:25;1.80;;;0.50;;
49314;SDS011;36672;50.710;12.498;2022-12-31T06:25:51;4.35;;;0.40;;
49314;SDS011;36672;50.710;12.498;2022-12-31T06:28:16;2.38;;;0.50;;
49314;SDS011;36672;50.710;12.498;2022-12-31T06:30:42;0.40;;;0.20;;
49314;SDS011;36672;50.710;12.498;2022-12-31T06:33:07;0.73;;;0.60;;
49314;SDS011;36672;50.710;12.498;2022-12-31T06:35:32;1.08;;;0.30;;
49314;SDS011;36672;50.710;12.498;2022-12-31T06:37:58;0.80;;;0.40;;
49314;SDS011;36672;50.710;12.498;2022-12-31T06:40:23;0.73;;;0.30;;
49314;SDS011;36672;50.710;12.498;2022-12-31T06:42:49;0.38;;;0.30;;
49314;SDS011;36672;50.710;12.498;2022-12-31T06:45:14;0.38;;;0.38;;
49314;SDS011;36672;50.710;12.498;2022-12-31T06:47:39;0.60;;;0.40;;
49314;SDS011;36672;50.710;12.498;2022-12-31T06:50:05;0.82;;;0.32;;
49314;SDS011;36672;50.710;12.498;2022-12-31T06:52:31;0.85;;;0.40;;
49314;SDS011;36672;50.710;12.498;2022-12-31T06:54:57;0.65;;;0.40;;
49314;SDS011;36672;50.710;12.498;2022-12-31T06:57:22;0.45;;;0.40;;
49314;SDS011;36672;50.710;12.498;2022-12-31T06:59:48;1.17;;;0.40;;
49314;SDS011;36672;50.710;12.498;2022-12-31T07:04:50;0.57;;;0.40;;
49314;SDS011;36672;50.710;12.498;2022-12-31T07:07:25;1.08;;;0.40;;
49314;SDS011;36672;50.710;12.498;2022-12-31T07:12:44;0.77;;;0.40;;
49314;SDS011;36672;50.710;12.498;2022-12-31T07:15:31;0.63;;;0.30;;
49314;SDS011;36672;50.710;12.498;2022-12-31T07:20:34;2.50;;;0.35;;
49314;SDS011;36672;50.710;12.498;2022-12-31T07:23:00;0.40;;;0.40;;
49314;SDS011;36672;50.710;12.498;2022-12-31T07:25:25;0.68;;;0.38;;
49314;SDS011;36672;50.710;12.498;2022-12-31T07:27:54;1.05;;;0.40;;
49314;SDS011;36672;50.710;12.498;2022-12-31T07:30:55;0.40;;;0.40;;
49314;SDS011;36672;50.710;12.498;2022-12-31T07:34:06;0.43;;;0.30;;
49314;SDS011;36672;50.710;12.498;2022-12-31T07:36:59;0.45;;;0.32;;
49314;SDS011;36672;50.710;12.498;2022-12-31T07:39:40;1.55;;;0.50;;
49314;SDS011;36672;50.710;12.498;2022-12-31T07:42:18;0.88;;;0.40;;
49314;SDS011;36672;50.710;12.498;2022-12-31T07:45:00;1.83;;;0.50;;
49314;SDS011;36672;50.710;12.498;2022-12-31T07:47:34;0.75;;;0.40;;
49314;SDS011;36672;50.710;12.498;2022-12-31T07:50:00;0.63;;;0.40;;
49314;SDS011;36672;50.710;12.498;2022-12-31T07:52:26;0.40;;;0.40;;
49314;SDS011;36672;50.710;12.498;2022-12-31T07:54:51;0.82;;;0.40;;
49314;SDS011;36672;50.710;12.498;2022-12-31T07:57:17;0.70;;;0.30;;
49314;SDS011;36672;50.710;12.498;2022-12-31T08:02:31;1.60;;;0.60;;
49314;SDS011;36672;50.710;12.498;2022-12-31T08:13:11;0.75;;;0.32;;
49314;SDS011;36672;50.710;12.498;2022-12-31T08:15:37;0.50;;;0.45;;
49314;SDS011;36672;50.710;12.498;2022-12-31T08:18:03;0.55;;;0.40;;
49314;SDS011;36672;50.710;12.498;2022-12-31T08:20:29;0.95;;;0.60;;
49314;SDS011;36672;50.710;12.498;2022-12-31T08:34:27;0.47;;;0.40;;
49314;SDS011;36672;50.710;12.498;2022-12-31T08:44:51;3.05;;;0.70;;
49314;SDS011;36672;50.710;12.498;2022-12-31T08:50:22;3.22;;;2.38;;
49314;SDS011;36672;50.710;12.498;2022-12-31T08:52:47;1.05;;;0.68;;
49314;SDS011;36672;50.710;12.498;2022-12-31T08:55:14;2.17;;;1.67;;
49314;SDS011;36672;50.710;12.498;2022-12-31T09:00:17;1.20;;;0.60;;
49314;SDS011;36672;50.710;12.498;2022-12-31T09:05:24;0.77;;;0.50;;
49314;SDS011;36672;50.710;12.498;2022-12-31T09:10:45;0.60;;;0.30;;
49314;SDS011;36672;50.710;12.498;2022-12-31T09:18:42;1.55;;;0.40;;
49314;SDS011;36672;50.710;12.498;2022-12-31T09:21:08;1.73;;;0.55;;
49314;SDS011;36672;50.710;12.498;2022-12-31T09:23:35;1.92;;;0.50;;
49314;SDS011;36672;50.710;12.498;2022-12-31T09:28:44;2.95;;;0.60;;
49314;SDS011;36672;50.710;12.498;2022-12-31T09:31:31;0.82;;;0.50;;
49314;SDS011;36672;50.710;12.498;2022-12-31T09:34:07;0.77;;;0.43;;
49314;SDS011;36672;50.710;12.498;2022-12-31T09:36:43;4.45;;;0.60;;
49314;SDS011;36672;50.710;12.498;2022-12-31T09:39:18;2.03;;;0.50;;
49314;SDS011;36672;50.710;12.498;2022-12-31T09:53:37;0.50;;;0.50;;
49314;SDS011;36672;50.710;12.498;2022-12-31T09:56:16;2.63;;;0.50;;
49314;SDS011;36672;50.710;12.498;2022-12-31T10:01:41;0.82;;;0.60;;
49314;SDS011;36672;50.710;12.498;2022-12-31T10:12:38;0.68;;;0.47;;
49314;SDS011;36672;50.710;12.498;2022-12-31T10:51:09;1.00;;;0.60;;
49314;SDS011;36672;50.710;12.498;2022-12-31T11:16:47;0.95;;;0.57;;
49314;SDS011;36672;50.710;12.498;2022-12-31T11:24:41;1.15;;;0.60;;
49314;SDS011;36672;50.710;12.498;2022-12-31T11:27:48;1.55;;;0.60;;
49314;SDS011;36672;50.710;12.498;2022-12-31T11:33:07;1.80;;;0.50;;
49314;SDS011;36672;50.710;12.498;2022-12-31T11:38:52;1.55;;;0.52;;
49314;SDS011;36672;50.710;12.498;2022-12-31T11:47:16;0.90;;;0.50;;
49314;SDS011;36672;50.710;12.498;2022-12-31T11:58:16;2.08;;;0.52;;
49314;SDS011;36672;50.710;12.498;2022-12-31T12:00:54;0.57;;;0.43;;
49314;SDS011;36672;50.710;12.498;2022-12-31T12:03:23;5.88;;;0.47;;
49314;SDS011;36672;50.710;12.498;2022-12-31T12:05:49;1.40;;;0.60;;
49314;SDS011;36672;50.710;12.498;2022-12-31T12:08:15;0.75;;;0.50;;
49314;SDS011;36672;50.710;12.498;2022-12-31T12:10:43;3.65;;;0.60;;
49314;SDS011;36672;50.710;12.498;2022-12-31T12:13:18;1.27;;;0.50;;
49314;SDS011;36672;50.710;12.498;2022-12-31T12:15:51;2.53;;;0.70;;
49314;SDS011;36672;50.710;12.498;2022-12-31T12:18:27;2.58;;;0.70;;
49314;SDS011;36672;50.710;12.498;2022-12-31T12:26:25;0.77;;;0.63;;
49314;SDS011;36672;50.710;12.498;2022-12-31T12:29:14;0.63;;;0.50;;
49314;SDS011;36672;50.710;12.498;2022-12-31T12:34:30;0.55;;;0.40;;
49314;SDS011;36672;50.710;12.498;2022-12-31T12:36:58;0.40;;;0.40;;
49314;SDS011;36672;50.710;12.498;2022-12-31T12:39:25;0.55;;;0.43;;
49314;SDS011;36672;50.710;12.498;2022-12-31T12:42:26;0.95;;;0.57;;
49314;SDS011;36672;50.710;12.498;2022-12-31T12:44:44;1.58;;;0.40;;
49314;SDS011;36672;50.710;12.498;2022-12-31T12:47:16;1.08;;;0.50;;
49314;SDS011;36672;50.710;12.498;2022-12-31T12:49:46;0.63;;;0.50;;
49314;SDS011;36672;50.710;12.498;2022-12-31T12:55:07;0.70;;;0.50;;
49314;SDS011;36672;50.710;12.498;2022-12-31T13:13:38;2.08;;;0.60;;
49314;SDS011;36672;50.710;12.498;2022-12-31T13:21:39;1.77;;;0.70;;
49314;SDS011;36672;50.710;12.498;2022-12-31T13:27:11;0.50;;;0.43;;
49314;SDS011;36672;50.710;12.498;2022-12-31T13:29:59;1.00;;;0.50;;
49314;SDS011;36672;50.710;12.498;2022-12-31T13:32:48;1.65;;;0.50;;
49314;SDS011;36672;50.710;12.498;2022-12-31T13:35:20;1.58;;;0.55;;
49314;SDS011;36672;50.710;12.498;2022-12-31T13:37:50;0.70;;;0.60;;
49314;SDS011;36672;50.710;12.498;2022-12-31T13:40:29;2.17;;;0.70;;
49314;SDS011;36672;50.710;12.498;2022-12-31T13:43:16;0.52;;;0.50;;
49314;SDS011;36672;50.710;12.498;2022-12-31T13:45:55;1.10;;;0.52;;
49314;SDS011;36672;50.710;12.498;2022-12-31T13:48:33;1.13;;;0.60;;
49314;SDS011;36672;50.710;12.498;2022-12-31T13:53:41;1.20;;;0.50;;
49314;SDS011;36672;50.710;12.498;2022-12-31T13:56:24;1.90;;;0.52;;
49314;SDS011;36672;50.710;12.498;2022-12-31T13:58:55;0.90;;;0.70;;
49314;SDS011;36672;50.710;12.498;2022-12-31T14:01:28;1.63;;;0.77;;
49314;SDS011;36672;50.710;12.498;2022-12-31T14:07:17;0.80;;;0.57;;
49314;SDS011;36672;50.710;12.498;2022-12-31T14:09:53;1.60;;;0.60;;
49314;SDS011;36672;50.710;12.498;2022-12-31T14:15:13;3.92;;;2.40;;
49314;SDS011;36672;50.710;12.498;2022-12-31T14:17:50;1.52;;;0.65;;
49314;SDS011;36672;50.710;12.498;2022-12-31T14:20:46;0.80;;;0.60;;
49314;SDS011;36672;50.710;12.498;2022-12-31T14:26:23;0.98;;;0.60;;
49314;SDS011;36672;50.710;12.498;2022-12-31T14:42:51;1.48;;;0.50;;
49314;SDS011;36672;50.710;12.498;2022-12-31T14:47:52;2.03;;;0.95;;
49314;SDS011;36672;50.710;12.498;2022-12-31T14:50:26;2.00;;;0.88;;
49314;SDS011;36672;50.710;12.498;2022-12-31T14:52:54;2.20;;;1.02;;
49314;SDS011;36672;50.710;12.498;2022-12-31T14:55:30;2.08;;;0.85;;
49314;SDS011;36672;50.710;12.498;2022-12-31T14:57:58;2.22;;;0.60;;
49314;SDS011;36672;50.710;12.498;2022-12-31T15:05:25;1.65;;;0.75;;
49314;SDS011;36672;50.710;12.498;2022-12-31T15:08:03;1.05;;;0.60;;
49314;SDS011;36672;50.710;12.498;2022-12-31T15:13:45;3.75;;;0.70;;
49314;SDS011;36672;50.710;12.498;2022-12-31T15:17:06;1.98;;;0.88;;
49314;SDS011;36672;50.710;12.498;2022-12-31T15:22:43;2.42;;;0.70;;
49314;SDS011;36672;50.710;12.498;2022-12-31T15:25:25;1.30;;;0.80;;
49314;SDS011;36672;50.710;12.498;2022-12-31T15:27:55;1.87;;;0.80;;
49314;SDS011;36672;50.710;12.498;2022-12-31T15:33:05;0.80;;;0.60;;
49314;SDS011;36672;50.710;12.498;2022-12-31T15:35:47;1.65;;;0.80;;
49314;SDS011;36672;50.710;12.498;2022-12-31T15:40:44;5.43;;;0.85;;
49314;SDS011;36672;50.710;12.498;2022-12-31T15:43:13;2.35;;;0.70;;
49314;SDS011;36672;50.710;12.498;2022-12-31T15:45:49;7.40;;;2.35;;
49314;SDS011;36672;50.710;12.498;2022-12-31T15:48:19;2.03;;;0.90;;
49314;SDS011;36672;50.710;12.498;2022-12-31T15:50:50;2.17;;;0.77;;
49314;SDS011;36672;50.710;12.498;2022-12-31T15:53:25;1.42;;;0.77;;
49314;SDS011;36672;50.710;12.498;2022-12-31T15:55:52;1.67;;;0.77;;
49314;SDS011;36672;50.710;12.498;2022-12-31T15:58:21;1.30;;;0.70;;
49314;SDS011;36672;50.710;12.498;2022-12-31T16:03:20;2.28;;;0.73;;
49314;SDS011;36672;50.710;12.498;2022-12-31T16:05:47;1.40;;;0.82;;
49314;SDS011;36672;50.710;12.498;2022-12-31T16:08:16;1.50;;;0.80;;
49314;SDS011;36672;50.710;12.498;2022-12-31T16:10:44;2.10;;;0.77;;
49314;SDS011;36672;50.710;12.498;2022-12-31T16:13:20;1.10;;;0.80;;
49314;SDS011;36672;50.710;12.498;2022-12-31T16:15:49;1.00;;;0.70;;
49314;SDS011;36672;50.710;12.498;2022-12-31T16:18:16;2.70;;;1.10;;
49314;SDS011;36672;50.710;12.498;2022-12-31T16:20:42;1.15;;;0.70;;
49314;SDS011;36672;50.710;12.498;2022-12-31T16:23:21;1.70;;;0.80;;
49314;SDS011;36672;50.710;12.498;2022-12-31T16:25:49;1.05;;;0.77;;
49314;SDS011;36672;50.710;12.498;2022-12-31T16:28:18;1.92;;;1.00;;
49314;SDS011;36672;50.710;12.498;2022-12-31T16:30:46;2.55;;;1.10;;
49314;SDS011;36672;50.710;12.498;2022-12-31T16:33:23;1.63;;;0.90;;
49314;SDS011;36672;50.710;12.498;2022-12-31T16:35:55;2.88;;;1.08;;
49314;SDS011;36672;50.710;12.498;2022-12-31T16:38:22;4.43;;;1.50;;
49314;SDS011;36672;50.710;12.498;2022-12-31T16:43:27;2.80;;;1.30;;
49314;SDS011;36672;50.710;12.498;2022-12-31T16:46:19;1.65;;;1.10;;
49314;SDS011;36672;50.710;12.498;2022-12-31T16:51:19;1.58;;;1.13;;
49314;SDS011;36672;50.710;12.498;2022-12-31T16:53:48;5.00;;;1.20;;
49314;SDS011;36672;50.710;12.498;2022-12-31T16:56:47;1.83;;;1.10;;
49314;SDS011;36672;50.710;12.498;2022-12-31T16:59:10;1.05;;;0.88;;
49314;SDS011;36672;50.710;12.498;2022-12-31T17:01:46;3.40;;;0.80;;
49314;SDS011;36672;50.710;12.498;2022-12-31T17:04:13;1.08;;;0.80;;
49314;SDS011;36672;50.710;12.498;2022-12-31T17:06:42;2.88;;;1.00;;
49314;SDS011;36672;50.710;12.498;2022-12-31T17:14:18;2.05;;;1.00;;
49314;SDS011;36672;50.710;12.498;2022-12-31T17:16:54;1.30;;;0.88;;
49314;SDS011;36672;50.710;12.498;2022-12-31T17:22:02;2.85;;;0.95;;
49314;SDS011;36672;50.710;12.498;2022-12-31T17:24:28;1.52;;;0.90;;
49314;SDS011;36672;50.710;12.498;2022-12-31T17:26:54;1.92;;;1.00;;
49314;SDS011;36672;50.710;12.498;2022-12-31T17:29:27;1.63;;;0.90;;
49314;SDS011;36672;50.710;12.498;2022-12-31T17:32:03;1.10;;;0.75;;
49314;SDS011;36672;50.710;12.498;2022-12-31T17:34:35;1.65;;;0.95;;
49314;SDS011;36672;50.710;12.498;2022-12-31T17:39:40;2.40;;;0.80;;
49314;SDS011;36672;50.710;12.498;2022-12-31T17:42:11;1.98;;;0.90;;
49314;SDS011;36672;50.710;12.498;2022-12-31T17:44:40;2.08;;;0.88;;
49314;SDS011;36672;50.710;12.498;2022-12-31T17:47:08;1.55;;;0.70;;
49314;SDS011;36672;50.710;12.498;2022-12-31T17:49:37;1.10;;;0.70;;
49314;SDS011;36672;50.710;12.498;2022-12-31T17:52:05;2.03;;;1.10;;
49314;SDS011;36672;50.710;12.498;2022-12-31T17:54:35;2.88;;;0.95;;
49314;SDS011;36672;50.710;12.498;2022-12-31T17:57:02;2.10;;;1.15;;
49314;SDS011;36672;50.710;12.498;2022-12-31T17:59:27;1.80;;;0.90;;
49314;SDS011;36672;50.710;12.498;2022-12-31T18:01:56;1.13;;;1.02;;
49314;SDS011;36672;50.710;12.498;2022-12-31T18:04:24;3.17;;;1.38;;
49314;SDS011;36672;50.710;12.498;2022-12-31T18:06:49;1.58;;;0.98;;
49314;SDS011;36672;50.710;12.498;2022-12-31T18:09:15;1.83;;;1.00;;
49314;SDS011;36672;50.710;12.498;2022-12-31T18:11:40;2.90;;;1.30;;
49314;SDS011;36672;50.710;12.498;2022-12-31T18:14:06;1.60;;;0.90;;
49314;SDS011;36672;50.710;12.498;2022-12-31T18:16:32;1.20;;;1.10;;
49314;SDS011;36672;50.710;12.498;2022-12-31T18:18:58;1.83;;;1.27;;
49314;SDS011;36672;50.710;12.498;2022-12-31T18:21:28;2.45;;;1.40;;
49314;SDS011;36672;50.710;12.498;2022-12-31T18:23:56;1.60;;;1.10;;
49314;SDS011;36672;50.710;12.498;2022-12-31T18:26:23;1.67;;;1.20;;
49314;SDS011;36672;50.710;12.498;2022-12-31T18:28:49;2.83;;;1.05;;
49314;SDS011;36672;50.710;12.498;2022-12-31T18:31:19;1.42;;;1.10;;
49314;SDS011;36672;50.710;12.498;2022-12-31T18:33:47;1.50;;;1.02;;
49314;SDS011;36672;50.710;12.498;2022-12-31T18:36:14;2.42;;;1.50;;
49314;SDS011;36672;50.710;12.498;2022-12-31T18:38:41;1.45;;;1.30;;
49314;SDS011;36672;50.710;12.498;2022-12-31T18:41:06;2.63;;;1.80;;
49314;SDS011;36672;50.710;12.498;2022-12-31T18:43:40;1.73;;;1.10;;
49314;SDS011;36672;50.710;12.498;2022-12-31T18:46:08;3.70;;;3.17;;
49314;SDS011;36672;50.710;12.498;2022-12-31T18:48:36;3.83;;;2.80;;
49314;SDS011;36672;50.710;12.498;2022-12-31T18:51:01;2.47;;;1.60;;
49314;SDS011;36672;50.710;12.498;2022-12-31T18:53:26;2.25;;;1.88;;
49314;SDS011;36672;50.710;12.498;2022-12-31T18:55:52;2.35;;;1.85;;
49314;SDS011;36672;50.710;12.498;2022-12-31T18:58:19;1.63;;;1.13;;
49314;SDS011;36672;50.710;12.498;2022-12-31T19:00:45;1.98;;;1.20;;
49314;SDS011;36672;50.710;12.498;2022-12-31T19:03:15;1.70;;;1.10;;
49314;SDS011;36672;50.710;12.498;2022-12-31T19:05:43;1.30;;;1.20;;
49314;SDS011;36672;50.710;12.498;2022-12-31T19:08:12;2.42;;;1.25;;
49314;SDS011;36672;50.710;12.498;2022-12-31T19:10:38;1.88;;;1.50;;
49314;SDS011;36672;50.710;12.498;2022-12-31T19:13:03;1.42;;;1.20;;
49314;SDS011;36672;50.710;12.498;2022-12-31T19:15:32;2.20;;;1.80;;
49314;SDS011;36672;50.710;12.498;2022-12-31T19:18:03;3.25;;;2.25;;
49314;SDS011;36672;50.710;12.498;2022-12-31T19:20:28;2.72;;;1.55;;
49314;SDS011;36672;50.710;12.498;2022-12-31T19:22:54;1.90;;;1.60;;
49314;SDS011;36672;50.710;12.498;2022-12-31T19:25:21;1.98;;;1.58;;
49314;SDS011;36672;50.710;12.498;2022-12-31T19:27:48;1.85;;;1.65;;
49314;SDS011;36672;50.710;12.498;2022-12-31T19:30:15;2.90;;;1.45;;
49314;SDS011;36672;50.710;12.498;2022-12-31T19:35:14;2.72;;;1.52;;